sensor_id;sensor_type;location;lat;lon;timestamp;pressure;altitude;pressure_sealevel;temperature;humidity
57290;BME280;43523;53.022;-1.178;2023-04-22T00:00:47;100125.96;;;8.27;92.08
57290;BME280;43523;53.022;-1.178;2023-04-22T00:01:50;100125.50;;;7.82;92.89
57290;BME280;43523;53.022;-1.178;2023-04-22T00:02:52;100123.92;;;7.93;93.30
57290;BME280;43523;53.022;-1.178;2023-04-22T00:03:55;100122.71;;;7.86;94.28
57290;BME280;43523;53.022;-1.178;2023-04-22T00:04:57;100124.21;;;7.41;95.96
57290;BME280;43523;53.022;-1.178;2023-04-22T00:06:00;100125.13;;;7.37;97.04
57290;BME280;43523;53.022;-1.178;2023-04-22T00:07:02;100125.93;;;7.21;99.53
57290;BME280;43523;53.022;-1.178;2023-04-22T00:08:05;100126.12;;;7.50;97.67
57290;BME280;43523;53.022;-1.178;2023-04-22T00:09:07;100129.80;;;7.68;95.89
57290;BME280;43523;53.022;-1.178;2023-04-22T00:10:10;100126.59;;;7.61;94.47
57290;BME280;43523;53.022;-1.178;2023-04-22T00:11:12;100128.85;;;7.78;94.25
57290;BME280;43523;53.022;-1.178;2023-04-22T00:12:15;100126.87;;;8.05;94.10
57290;BME280;43523;53.022;-1.178;2023-04-22T00:13:18;100125.63;;;7.85;93.74
57290;BME280;43523;53.022;-1.178;2023-04-22T00:14:20;100124.35;;;7.30;97.27
57290;BME280;43523;53.022;-1.178;2023-04-22T00:15:22;100124.93;;;6.60;100.00
57290;BME280;43523;53.022;-1.178;2023-04-22T00:16:26;100122.06;;;6.93;100.00
57290;BME280;43523;53.022;-1.178;2023-04-22T00:17:29;100117.63;;;7.36;100.00
57290;BME280;43523;53.022;-1.178;2023-04-22T00:18:33;100113.67;;;7.51;99.22
57290;BME280;43523;53.022;-1.178;2023-04-22T00:19:35;100111.43;;;6.32;100.00
57290;BME280;43523;53.022;-1.178;2023-04-22T00:20:37;100108.85;;;6.11;100.00
57290;BME280;43523;53.022;-1.178;2023-04-22T00:21:40;100103.03;;;6.75;100.00
57290;BME280;43523;53.022;-1.178;2023-04-22T00:22:44;100099.56;;;5.94;100.00
57290;BME280;43523;53.022;-1.178;2023-04-22T00:23:47;100093.02;;;5.60;100.00
57290;BME280;43523;53.022;-1.178;2023-04-22T00:24:49;100093.03;;;5.92;100.00
57290;BME280;43523;53.022;-1.178;2023-04-22T00:25:51;100088.09;;;6.23;100.00
57290;BME280;43523;53.022;-1.178;2023-04-22T00:26:53;100085.80;;;4.90;100.00
57290;BME280;43523;53.022;-1.178;2023-04-22T00:27:55;100081.39;;;4.86;100.00
57290;BME280;43523;53.022;-1.178;2023-04-22T00:28:58;100080.43;;;4.76;100.00
57290;BME280;43523;53.022;-1.178;2023-04-22T00:30:00;100079.63;;;5.52;100.00
57290;BME280;43523;53.022;-1.178;2023-04-22T00:31:03;100074.95;;;5.39;100.00
57290;BME280;43523;53.022;-1.178;2023-04-22T00:32:05;100074.56;;;5.98;100.00
57290;BME280;43523;53.022;-1.178;2023-04-22T00:33:07;100071.40;;;6.11;100.00
57290;BME280;43523;53.022;-1.178;2023-04-22T00:34:09;100075.50;;;6.22;100.00
57290;BME280;43523;53.022;-1.178;2023-04-22T00:35:12;100067.60;;;5.96;100.00
57290;BME280;43523;53.022;-1.178;2023-04-22T00:36:14;100066.20;;;4.85;100.00
57290;BME280;43523;53.022;-1.178;2023-04-22T00:37:17;100065.63;;;4.69;100.00
57290;BME280;43523;53.022;-1.178;2023-04-22T00:38:19;100063.90;;;4.43;100.00
57290;BME280;43523;53.022;-1.178;2023-04-22T00:39:22;100061.95;;;4.18;100.00
57290;BME280;43523;53.022;-1.178;2023-04-22T00:40:24;100062.65;;;4.37;100.00
57290;BME280;43523;53.022;-1.178;2023-04-22T00:41:26;100062.28;;;4.05;100.00
57290;BME280;43523;53.022;-1.178;2023-04-22T00:42:29;100059.19;;;4.32;100.00
57290;BME280;43523;53.022;-1.178;2023-04-22T00:43:32;100056.63;;;4.08;100.00
57290;BME280;43523;53.022;-1.178;2023-04-22T00:44:35;100055.02;;;4.04;100.00
57290;BME280;43523;53.022;-1.178;2023-04-22T00:45:38;100049.71;;;4.57;100.00
57290;BME280;43523;53.022;-1.178;2023-04-22T00:46:40;100046.38;;;4.52;100.00
57290;BME280;43523;53.022;-1.178;2023-04-22T00:47:48;100046.35;;;4.51;100.00
57290;BME280;43523;53.022;-1.178;2023-04-22T00:48:50;100043.08;;;5.47;100.00
57290;BME280;43523;53.022;-1.178;2023-04-22T00:49:54;100046.64;;;4.73;100.00
57290;BME280;43523;53.022;-1.178;2023-04-22T00:50:55;100045.69;;;4.50;100.00
57290;BME280;43523;53.022;-1.178;2023-04-22T00:51:58;100044.07;;;4.59;100.00
57290;BME280;43523;53.022;-1.178;2023-04-22T00:53:00;100040.49;;;4.51;100.00
57290;BME280;43523;53.022;-1.178;2023-04-22T00:54:02;100041.04;;;4.44;100.00
57290;BME280;43523;53.022;-1.178;2023-04-22T00:55:05;100039.48;;;4.27;100.00
57290;BME280;43523;53.022;-1.178;2023-04-22T00:56:08;100036.47;;;4.46;100.00
57290;BME280;43523;53.022;-1.178;2023-04-22T00:57:11;100031.67;;;5.49;100.00
57290;BME280;43523;53.022;-1.178;2023-04-22T00:58:14;100036.43;;;4.62;100.00
57290;BME280;43523;53.022;-1.178;2023-04-22T00:59:17;100031.96;;;5.45;100.00
57290;BME280;43523;53.022;-1.178;2023-04-22T01:00:19;100031.85;;;5.20;100.00
57290;BME280;43523;53.022;-1.178;2023-04-22T01:01:23;100036.01;;;5.78;100.00
57290;BME280;43523;53.022;-1.178;2023-04-22T01:02:25;100036.55;;;6.09;100.00
57290;BME280;43523;53.022;-1.178;2023-04-22T01:03:29;100035.95;;;5.58;100.00
57290;BME280;43523;53.022;-1.178;2023-04-22T01:04:32;100036.18;;;6.29;100.00
57290;BME280;43523;53.022;-1.178;2023-04-22T01:05:36;100032.55;;;5.46;100.00
57290;BME280;43523;53.022;-1.178;2023-04-22T01:06:39;100032.00;;;5.55;100.00
57290;BME280;43523;53.022;-1.178;2023-04-22T01:07:43;100027.53;;;5.46;100.00
57290;BME280;43523;53.022;-1.178;2023-04-22T01:08:46;100028.67;;;5.58;100.00
57290;BME280;43523;53.022;-1.178;2023-04-22T01:09:49;100025.78;;;5.93;100.00
57290;BME280;43523;53.022;-1.178;2023-04-22T01:10:52;100024.65;;;6.51;100.00
57290;BME280;43523;53.022;-1.178;2023-04-22T01:11:55;100021.02;;;6.75;100.00
57290;BME280;43523;53.022;-1.178;2023-04-22T01:12:58;100021.17;;;5.66;100.00
57290;BME280;43523;53.022;-1.178;2023-04-22T01:14:01;100020.45;;;5.07;100.00
57290;BME280;43523;53.022;-1.178;2023-04-22T01:15:05;100021.92;;;4.54;100.00
57290;BME280;43523;53.022;-1.178;2023-04-22T01:16:08;100018.37;;;4.46;100.00
57290;BME280;43523;53.022;-1.178;2023-04-22T01:17:10;100015.61;;;4.25;100.00
57290;BME280;43523;53.022;-1.178;2023-04-22T01:18:14;100013.26;;;4.57;100.00
57290;BME280;43523;53.022;-1.178;2023-04-22T01:19:16;100008.39;;;3.86;100.00
57290;BME280;43523;53.022;-1.178;2023-04-22T01:20:19;100004.86;;;4.13;100.00
57290;BME280;43523;53.022;-1.178;2023-04-22T01:21:22;100003.03;;;4.95;100.00
57290;BME280;43523;53.022;-1.178;2023-04-22T01:22:25;99998.53;;;5.63;100.00
57290;BME280;43523;53.022;-1.178;2023-04-22T01:23:28;99998.73;;;5.87;100.00
57290;BME280;43523;53.022;-1.178;2023-04-22T01:24:32;99996.44;;;5.84;100.00
57290;BME280;43523;53.022;-1.178;2023-04-22T01:25:35;99993.91;;;5.98;100.00
57290;BME280;43523;53.022;-1.178;2023-04-22T01:26:37;99990.54;;;6.31;100.00
57290;BME280;43523;53.022;-1.178;2023-04-22T01:27:40;99989.63;;;6.54;100.00
57290;BME280;43523;53.022;-1.178;2023-04-22T01:28:44;99985.88;;;6.59;100.00
57290;BME280;43523;53.022;-1.178;2023-04-22T01:29:47;99985.32;;;6.55;100.00
57290;BME280;43523;53.022;-1.178;2023-04-22T01:30:49;99984.98;;;6.48;100.00
57290;BME280;43523;53.022;-1.178;2023-04-22T01:31:52;99980.27;;;6.46;100.00
57290;BME280;43523;53.022;-1.178;2023-04-22T01:32:54;99977.97;;;6.05;100.00
57290;BME280;43523;53.022;-1.178;2023-04-22T01:33:57;99975.65;;;6.14;100.00
57290;BME280;43523;53.022;-1.178;2023-04-22T01:34:59;99973.83;;;6.21;100.00
57290;BME280;43523;53.022;-1.178;2023-04-22T01:36:02;99971.41;;;5.19;100.00
57290;BME280;43523;53.022;-1.178;2023-04-22T01:37:05;99968.99;;;5.14;100.00
57290;BME280;43523;53.022;-1.178;2023-04-22T01:38:10;99968.85;;;4.61;100.00
57290;BME280;43523;53.022;-1.178;2023-04-22T01:39:13;99968.86;;;4.32;100.00
57290;BME280;43523;53.022;-1.178;2023-04-22T01:40:15;99969.02;;;4.14;100.00
57290;BME280;43523;53.022;-1.178;2023-04-22T01:41:18;99967.66;;;4.43;100.00
57290;BME280;43523;53.022;-1.178;2023-04-22T01:42:20;99969.18;;;3.99;100.00
57290;BME280;43523;53.022;-1.178;2023-04-22T01:43:22;99969.80;;;4.44;100.00
57290;BME280;43523;53.022;-1.178;2023-04-22T01:44:25;99965.73;;;5.10;100.00
57290;BME280;43523;53.022;-1.178;2023-04-22T01:45:27;99966.80;;;5.18;100.00
57290;BME280;43523;53.022;-1.178;2023-04-22T01:46:32;99966.98;;;5.26;100.00
57290;BME280;43523;53.022;-1.178;2023-04-22T01:47:34;99968.59;;;4.25;100.00
57290;BME280;43523;53.022;-1.178;2023-04-22T01:48:37;99969.22;;;5.65;100.00
57290;BME280;43523;53.022;-1.178;2023-04-22T01:49:39;99967.63;;;5.91;100.00
57290;BME280;43523;53.022;-1.178;2023-04-22T01:50:42;99967.58;;;6.11;100.00
57290;BME280;43523;53.022;-1.178;2023-04-22T01:51:45;99969.09;;;4.63;100.00
57290;BME280;43523;53.022;-1.178;2023-04-22T01:52:47;99968.43;;;4.99;100.00
57290;BME280;43523;53.022;-1.178;2023-04-22T01:53:50;99969.80;;;5.30;100.00
57290;BME280;43523;53.022;-1.178;2023-04-22T01:54:52;99967.09;;;4.69;100.00
57290;BME280;43523;53.022;-1.178;2023-04-22T01:55:54;99970.23;;;5.34;100.00
57290;BME280;43523;53.022;-1.178;2023-04-22T01:56:56;99968.05;;;4.24;100.00
57290;BME280;43523;53.022;-1.178;2023-04-22T01:57:59;99968.74;;;5.06;100.00
57290;BME280;43523;53.022;-1.178;2023-04-22T01:59:02;99965.69;;;4.59;100.00
57290;BME280;43523;53.022;-1.178;2023-04-22T02:00:05;99963.94;;;5.33;100.00
57290;BME280;43523;53.022;-1.178;2023-04-22T02:01:09;99961.29;;;4.70;100.00
57290;BME280;43523;53.022;-1.178;2023-04-22T02:02:11;99958.21;;;5.74;100.00
57290;BME280;43523;53.022;-1.178;2023-04-22T02:03:19;99959.84;;;5.35;100.00
57290;BME280;43523;53.022;-1.178;2023-04-22T02:04:21;99959.06;;;4.41;100.00
57290;BME280;43523;53.022;-1.178;2023-04-22T02:05:23;99955.11;;;4.86;100.00
57290;BME280;43523;53.022;-1.178;2023-04-22T02:06:26;99955.41;;;5.36;100.00
57290;BME280;43523;53.022;-1.178;2023-04-22T02:07:28;99956.31;;;5.84;100.00
57290;BME280;43523;53.022;-1.178;2023-04-22T02:08:31;99956.60;;;5.80;100.00
57290;BME280;43523;53.022;-1.178;2023-04-22T02:09:33;99958.85;;;5.29;100.00
57290;BME280;43523;53.022;-1.178;2023-04-22T02:10:35;99957.01;;;5.72;100.00
57290;BME280;43523;53.022;-1.178;2023-04-22T02:11:37;99956.68;;;5.79;100.00
57290;BME280;43523;53.022;-1.178;2023-04-22T02:12:39;99956.71;;;5.64;100.00
57290;BME280;43523;53.022;-1.178;2023-04-22T02:13:41;99956.40;;;6.06;100.00
57290;BME280;43523;53.022;-1.178;2023-04-22T02:14:44;99954.69;;;6.22;100.00
57290;BME280;43523;53.022;-1.178;2023-04-22T02:15:47;99954.29;;;6.52;100.00
57290;BME280;43523;53.022;-1.178;2023-04-22T02:16:49;99951.68;;;6.22;100.00
57290;BME280;43523;53.022;-1.178;2023-04-22T02:17:51;99949.37;;;6.52;100.00
57290;BME280;43523;53.022;-1.178;2023-04-22T02:18:53;99946.49;;;6.30;100.00
57290;BME280;43523;53.022;-1.178;2023-04-22T02:19:56;99947.48;;;6.31;100.00
57290;BME280;43523;53.022;-1.178;2023-04-22T02:20:58;99944.16;;;6.47;100.00
57290;BME280;43523;53.022;-1.178;2023-04-22T02:22:00;99944.15;;;5.86;100.00
57290;BME280;43523;53.022;-1.178;2023-04-22T02:23:04;99941.27;;;6.12;100.00
57290;BME280;43523;53.022;-1.178;2023-04-22T02:24:06;99939.15;;;5.97;100.00
57290;BME280;43523;53.022;-1.178;2023-04-22T02:25:09;99937.26;;;6.26;100.00
57290;BME280;43523;53.022;-1.178;2023-04-22T02:26:12;99935.40;;;6.40;100.00
57290;BME280;43523;53.022;-1.178;2023-04-22T02:27:14;99936.80;;;6.54;100.00
57290;BME280;43523;53.022;-1.178;2023-04-22T02:28:17;99934.86;;;6.72;100.00
57290;BME280;43523;53.022;-1.178;2023-04-22T02:29:20;99930.87;;;6.42;100.00
57290;BME280;43523;53.022;-1.178;2023-04-22T02:30:22;99930.23;;;5.08;100.00
57290;BME280;43523;53.022;-1.178;2023-04-22T02:31:25;99928.22;;;5.08;100.00
57290;BME280;43523;53.022;-1.178;2023-04-22T02:32:27;99925.23;;;4.27;100.00
57290;BME280;43523;53.022;-1.178;2023-04-22T02:33:29;99926.03;;;4.23;100.00
57290;BME280;43523;53.022;-1.178;2023-04-22T02:34:32;99925.13;;;3.86;100.00
57290;BME280;43523;53.022;-1.178;2023-04-22T02:35:34;99920.27;;;4.79;100.00
57290;BME280;43523;53.022;-1.178;2023-04-22T02:36:36;99919.26;;;4.95;100.00
57290;BME280;43523;53.022;-1.178;2023-04-22T02:37:39;99921.69;;;5.49;100.00
57290;BME280;43523;53.022;-1.178;2023-04-22T02:38:41;99920.76;;;4.67;100.00
57290;BME280;43523;53.022;-1.178;2023-04-22T02:39:44;99920.35;;;4.15;100.00
57290;BME280;43523;53.022;-1.178;2023-04-22T02:40:46;99921.42;;;3.86;100.00
57290;BME280;43523;53.022;-1.178;2023-04-22T02:41:49;99920.11;;;3.59;100.00
57290;BME280;43523;53.022;-1.178;2023-04-22T02:42:51;99917.78;;;4.36;100.00
57290;BME280;43523;53.022;-1.178;2023-04-22T02:43:53;99915.35;;;4.39;100.00
57290;BME280;43523;53.022;-1.178;2023-04-22T02:44:56;99914.13;;;4.03;100.00
57290;BME280;43523;53.022;-1.178;2023-04-22T02:45:59;99911.86;;;3.93;100.00
57290;BME280;43523;53.022;-1.178;2023-04-22T02:47:01;99910.81;;;3.63;100.00
57290;BME280;43523;53.022;-1.178;2023-04-22T02:48:04;99906.75;;;3.77;100.00
57290;BME280;43523;53.022;-1.178;2023-04-22T02:49:06;99902.43;;;3.60;100.00
57290;BME280;43523;53.022;-1.178;2023-04-22T02:50:09;99900.54;;;3.85;100.00
57290;BME280;43523;53.022;-1.178;2023-04-22T02:51:12;99895.79;;;3.91;100.00
57290;BME280;43523;53.022;-1.178;2023-04-22T02:52:14;99891.12;;;3.64;100.00
57290;BME280;43523;53.022;-1.178;2023-04-22T02:53:16;99886.44;;;4.53;100.00
57290;BME280;43523;53.022;-1.178;2023-04-22T02:54:18;99884.47;;;4.71;100.00
57290;BME280;43523;53.022;-1.178;2023-04-22T02:55:21;99882.88;;;5.04;100.00
57290;BME280;43523;53.022;-1.178;2023-04-22T02:56:23;99883.12;;;5.21;100.00
57290;BME280;43523;53.022;-1.178;2023-04-22T02:57:26;99876.95;;;4.83;100.00
57290;BME280;43523;53.022;-1.178;2023-04-22T02:58:28;99876.93;;;4.58;100.00
57290;BME280;43523;53.022;-1.178;2023-04-22T02:59:36;99878.16;;;4.21;100.00
57290;BME280;43523;53.022;-1.178;2023-04-22T03:00:38;99875.09;;;4.40;100.00
57290;BME280;43523;53.022;-1.178;2023-04-22T03:01:40;99873.60;;;4.34;100.00
57290;BME280;43523;53.022;-1.178;2023-04-22T03:02:44;99874.83;;;4.12;100.00
57290;BME280;43523;53.022;-1.178;2023-04-22T03:03:46;99876.43;;;4.21;100.00
57290;BME280;43523;53.022;-1.178;2023-04-22T03:04:49;99876.24;;;4.76;100.00
57290;BME280;43523;53.022;-1.178;2023-04-22T03:05:51;99871.61;;;5.63;100.00
57290;BME280;43523;53.022;-1.178;2023-04-22T03:06:53;99869.87;;;5.36;100.00
57290;BME280;43523;53.022;-1.178;2023-04-22T03:07:56;99868.11;;;5.81;100.00
57290;BME280;43523;53.022;-1.178;2023-04-22T03:08:59;99862.74;;;5.88;100.00
57290;BME280;43523;53.022;-1.178;2023-04-22T03:10:01;99863.10;;;4.34;100.00
57290;BME280;43523;53.022;-1.178;2023-04-22T03:11:04;99867.15;;;5.03;100.00
57290;BME280;43523;53.022;-1.178;2023-04-22T03:12:06;99863.19;;;4.59;100.00
57290;BME280;43523;53.022;-1.178;2023-04-22T03:13:08;99864.83;;;4.98;100.00
57290;BME280;43523;53.022;-1.178;2023-04-22T03:14:10;99863.91;;;4.56;100.00
57290;BME280;43523;53.022;-1.178;2023-04-22T03:15:12;99863.05;;;5.21;100.00
57290;BME280;43523;53.022;-1.178;2023-04-22T03:16:15;99862.32;;;5.14;100.00
57290;BME280;43523;53.022;-1.178;2023-04-22T03:17:18;99864.55;;;4.40;100.00
57290;BME280;43523;53.022;-1.178;2023-04-22T03:18:20;99862.84;;;4.66;100.00
57290;BME280;43523;53.022;-1.178;2023-04-22T03:19:23;99862.20;;;4.74;100.00
57290;BME280;43523;53.022;-1.178;2023-04-22T03:20:25;99858.20;;;4.19;100.00
57290;BME280;43523;53.022;-1.178;2023-04-22T03:21:27;99856.35;;;4.51;100.00
57290;BME280;43523;53.022;-1.178;2023-04-22T03:22:31;99855.19;;;4.06;100.00
57290;BME280;43523;53.022;-1.178;2023-04-22T03:23:33;99853.08;;;4.64;100.00
57290;BME280;43523;53.022;-1.178;2023-04-22T03:24:35;99849.83;;;4.35;100.00
57290;BME280;43523;53.022;-1.178;2023-04-22T03:25:38;99851.65;;;3.71;100.00
57290;BME280;43523;53.022;-1.178;2023-04-22T03:26:40;99849.76;;;3.89;100.00
57290;BME280;43523;53.022;-1.178;2023-04-22T03:27:44;99847.94;;;3.89;100.00
57290;BME280;43523;53.022;-1.178;2023-04-22T03:28:46;99842.25;;;4.35;100.00
57290;BME280;43523;53.022;-1.178;2023-04-22T03:29:48;99841.84;;;4.78;100.00
57290;BME280;43523;53.022;-1.178;2023-04-22T03:30:50;99839.76;;;4.96;100.00
57290;BME280;43523;53.022;-1.178;2023-04-22T03:31:53;99837.44;;;4.43;100.00
57290;BME280;43523;53.022;-1.178;2023-04-22T03:32:56;99838.13;;;4.78;100.00
57290;BME280;43523;53.022;-1.178;2023-04-22T03:33:58;99836.34;;;4.47;100.00
57290;BME280;43523;53.022;-1.178;2023-04-22T03:35:00;99837.61;;;5.06;100.00
57290;BME280;43523;53.022;-1.178;2023-04-22T03:36:03;99835.39;;;5.57;100.00
57290;BME280;43523;53.022;-1.178;2023-04-22T03:37:05;99831.54;;;5.48;100.00
57290;BME280;43523;53.022;-1.178;2023-04-22T03:38:07;99828.46;;;5.60;100.00
57290;BME280;43523;53.022;-1.178;2023-04-22T03:39:10;99826.12;;;5.16;100.00
57290;BME280;43523;53.022;-1.178;2023-04-22T03:40:13;99822.13;;;5.99;100.00
57290;BME280;43523;53.022;-1.178;2023-04-22T03:41:15;99821.27;;;5.44;100.00
57290;BME280;43523;53.022;-1.178;2023-04-22T03:42:18;99818.59;;;5.49;100.00
57290;BME280;43523;53.022;-1.178;2023-04-22T03:43:20;99819.66;;;5.20;100.00
57290;BME280;43523;53.022;-1.178;2023-04-22T03:44:23;99817.30;;;5.66;100.00
57290;BME280;43523;53.022;-1.178;2023-04-22T03:45:25;99817.55;;;5.42;100.00
57290;BME280;43523;53.022;-1.178;2023-04-22T03:46:28;99818.39;;;5.43;100.00
57290;BME280;43523;53.022;-1.178;2023-04-22T03:47:31;99819.87;;;6.04;100.00
57290;BME280;43523;53.022;-1.178;2023-04-22T03:48:34;99821.78;;;4.94;100.00
57290;BME280;43523;53.022;-1.178;2023-04-22T03:49:36;99820.61;;;4.89;100.00
57290;BME280;43523;53.022;-1.178;2023-04-22T03:50:39;99818.56;;;5.44;100.00
57290;BME280;43523;53.022;-1.178;2023-04-22T03:51:40;99822.58;;;4.33;100.00
57290;BME280;43523;53.022;-1.178;2023-04-22T03:52:44;99820.09;;;5.12;100.00
57290;BME280;43523;53.022;-1.178;2023-04-22T03:53:47;99817.00;;;4.25;100.00
57290;BME280;43523;53.022;-1.178;2023-04-22T03:54:49;99816.44;;;4.17;100.00
57290;BME280;43523;53.022;-1.178;2023-04-22T03:55:51;99815.74;;;4.49;100.00
57290;BME280;43523;53.022;-1.178;2023-04-22T03:56:54;99816.27;;;4.59;100.00
57290;BME280;43523;53.022;-1.178;2023-04-22T03:57:56;99812.72;;;4.07;100.00
57290;BME280;43523;53.022;-1.178;2023-04-22T03:58:59;99813.76;;;5.03;100.00
57290;BME280;43523;53.022;-1.178;2023-04-22T04:00:01;99806.67;;;4.99;100.00
57290;BME280;43523;53.022;-1.178;2023-04-22T04:01:03;99808.37;;;5.59;100.00
57290;BME280;43523;53.022;-1.178;2023-04-22T04:02:06;99806.63;;;4.45;100.00
57290;BME280;43523;53.022;-1.178;2023-04-22T04:03:08;99804.72;;;4.39;100.00
57290;BME280;43523;53.022;-1.178;2023-04-22T04:04:10;99800.42;;;4.97;100.00
57290;BME280;43523;53.022;-1.178;2023-04-22T04:05:12;99799.64;;;5.15;100.00
57290;BME280;43523;53.022;-1.178;2023-04-22T04:06:15;99798.52;;;5.08;100.00
57290;BME280;43523;53.022;-1.178;2023-04-22T04:07:17;99795.90;;;5.59;100.00
57290;BME280;43523;53.022;-1.178;2023-04-22T04:08:19;99793.83;;;4.42;100.00
57290;BME280;43523;53.022;-1.178;2023-04-22T04:09:22;99792.01;;;4.70;100.00
57290;BME280;43523;53.022;-1.178;2023-04-22T04:10:25;99793.63;;;4.63;100.00
57290;BME280;43523;53.022;-1.178;2023-04-22T04:11:27;99793.36;;;4.81;100.00
57290;BME280;43523;53.022;-1.178;2023-04-22T04:12:31;99791.48;;;4.70;100.00
57290;BME280;43523;53.022;-1.178;2023-04-22T04:13:33;99797.22;;;3.85;100.00
57290;BME280;43523;53.022;-1.178;2023-04-22T04:14:35;99791.02;;;4.69;100.00
57290;BME280;43523;53.022;-1.178;2023-04-22T04:15:37;99793.01;;;4.07;100.00
57290;BME280;43523;53.022;-1.178;2023-04-22T04:16:39;99789.58;;;4.08;100.00
57290;BME280;43523;53.022;-1.178;2023-04-22T04:17:43;99787.05;;;3.64;100.00
57290;BME280;43523;53.022;-1.178;2023-04-22T04:18:45;99783.74;;;3.08;100.00
57290;BME280;43523;53.022;-1.178;2023-04-22T04:19:50;99784.80;;;3.83;100.00
57290;BME280;43523;53.022;-1.178;2023-04-22T04:20:53;99780.65;;;4.06;100.00
57290;BME280;43523;53.022;-1.178;2023-04-22T04:21:55;99781.52;;;4.12;100.00
57290;BME280;43523;53.022;-1.178;2023-04-22T04:22:57;99784.06;;;3.57;100.00
57290;BME280;43523;53.022;-1.178;2023-04-22T04:23:59;99783.13;;;3.68;100.00
57290;BME280;43523;53.022;-1.178;2023-04-22T04:25:02;99782.89;;;3.57;100.00
57290;BME280;43523;53.022;-1.178;2023-04-22T04:26:04;99784.71;;;3.92;100.00
57290;BME280;43523;53.022;-1.178;2023-04-22T04:27:07;99783.52;;;4.26;100.00
57290;BME280;43523;53.022;-1.178;2023-04-22T04:28:09;99786.41;;;4.07;100.00
57290;BME280;43523;53.022;-1.178;2023-04-22T04:29:12;99785.93;;;4.17;100.00
57290;BME280;43523;53.022;-1.178;2023-04-22T04:30:14;99781.75;;;3.98;100.00
57290;BME280;43523;53.022;-1.178;2023-04-22T04:31:17;99776.75;;;4.30;100.00
57290;BME280;43523;53.022;-1.178;2023-04-22T04:32:19;99780.25;;;3.53;100.00
57290;BME280;43523;53.022;-1.178;2023-04-22T04:33:21;99780.78;;;3.16;100.00
57290;BME280;43523;53.022;-1.178;2023-04-22T04:34:23;99780.46;;;3.47;100.00
57290;BME280;43523;53.022;-1.178;2023-04-22T04:35:25;99782.45;;;3.60;100.00
57290;BME280;43523;53.022;-1.178;2023-04-22T04:36:29;99781.34;;;3.72;100.00
57290;BME280;43523;53.022;-1.178;2023-04-22T04:37:32;99780.77;;;3.82;100.00
57290;BME280;43523;53.022;-1.178;2023-04-22T04:38:34;99781.60;;;3.50;100.00
57290;BME280;43523;53.022;-1.178;2023-04-22T04:39:37;99782.33;;;3.57;100.00
57290;BME280;43523;53.022;-1.178;2023-04-22T04:40:39;99780.10;;;3.22;100.00
57290;BME280;43523;53.022;-1.178;2023-04-22T04:41:42;99781.13;;;3.30;100.00
57290;BME280;43523;53.022;-1.178;2023-04-22T04:42:45;99779.04;;;3.48;100.00
57290;BME280;43523;53.022;-1.178;2023-04-22T04:43:47;99774.66;;;3.30;100.00
57290;BME280;43523;53.022;-1.178;2023-04-22T04:44:50;99778.56;;;3.72;100.00
57290;BME280;43523;53.022;-1.178;2023-04-22T04:45:52;99773.64;;;3.99;100.00
57290;BME280;43523;53.022;-1.178;2023-04-22T04:46:55;99769.76;;;4.32;100.00
57290;BME280;43523;53.022;-1.178;2023-04-22T04:47:57;99764.90;;;4.56;100.00
57290;BME280;43523;53.022;-1.178;2023-04-22T04:48:59;99762.88;;;4.45;100.00
57290;BME280;43523;53.022;-1.178;2023-04-22T04:50:02;99765.64;;;3.66;100.00
57290;BME280;43523;53.022;-1.178;2023-04-22T04:51:04;99765.05;;;3.59;100.00
57290;BME280;43523;53.022;-1.178;2023-04-22T04:52:07;99759.87;;;4.18;100.00
57290;BME280;43523;53.022;-1.178;2023-04-22T04:53:10;99761.59;;;4.15;100.00
57290;BME280;43523;53.022;-1.178;2023-04-22T04:54:12;99764.42;;;4.42;100.00
57290;BME280;43523;53.022;-1.178;2023-04-22T04:55:14;99763.81;;;3.94;100.00
57290;BME280;43523;53.022;-1.178;2023-04-22T04:56:17;99764.46;;;4.30;100.00
57290;BME280;43523;53.022;-1.178;2023-04-22T04:57:19;99765.56;;;4.24;100.00
57290;BME280;43523;53.022;-1.178;2023-04-22T04:58:22;99767.93;;;4.08;100.00
57290;BME280;43523;53.022;-1.178;2023-04-22T04:59:24;99767.39;;;3.36;100.00
57290;BME280;43523;53.022;-1.178;2023-04-22T05:00:26;99764.60;;;3.99;100.00
57290;BME280;43523;53.022;-1.178;2023-04-22T05:01:29;99770.83;;;3.64;100.00
57290;BME280;43523;53.022;-1.178;2023-04-22T05:02:31;99770.40;;;3.46;100.00
57290;BME280;43523;53.022;-1.178;2023-04-22T05:03:33;99769.00;;;3.32;100.00
57290;BME280;43523;53.022;-1.178;2023-04-22T05:04:35;99771.87;;;3.23;100.00
57290;BME280;43523;53.022;-1.178;2023-04-22T05:05:37;99770.15;;;3.43;100.00
57290;BME280;43523;53.022;-1.178;2023-04-22T05:06:45;99776.90;;;3.03;100.00
57290;BME280;43523;53.022;-1.178;2023-04-22T05:07:48;99778.32;;;2.74;100.00
57290;BME280;43523;53.022;-1.178;2023-04-22T05:08:50;99778.84;;;3.03;100.00
57290;BME280;43523;53.022;-1.178;2023-04-22T05:09:53;99784.03;;;3.31;100.00
57290;BME280;43523;53.022;-1.178;2023-04-22T05:10:55;99787.97;;;3.32;100.00
57290;BME280;43523;53.022;-1.178;2023-04-22T05:11:58;99785.56;;;3.25;100.00
57290;BME280;43523;53.022;-1.178;2023-04-22T05:13:00;99788.19;;;3.31;100.00
57290;BME280;43523;53.022;-1.178;2023-04-22T05:14:02;99790.17;;;2.82;100.00
57290;BME280;43523;53.022;-1.178;2023-04-22T05:15:05;99787.93;;;3.00;100.00
57290;BME280;43523;53.022;-1.178;2023-04-22T05:16:08;99786.49;;;2.76;100.00
57290;BME280;43523;53.022;-1.178;2023-04-22T05:17:10;99789.88;;;2.91;100.00
57290;BME280;43523;53.022;-1.178;2023-04-22T05:18:12;99783.40;;;3.16;100.00
57290;BME280;43523;53.022;-1.178;2023-04-22T05:19:15;99788.26;;;3.25;100.00
57290;BME280;43523;53.022;-1.178;2023-04-22T05:20:17;99787.70;;;2.84;100.00
57290;BME280;43523;53.022;-1.178;2023-04-22T05:21:19;99786.51;;;2.79;100.00
57290;BME280;43523;53.022;-1.178;2023-04-22T05:22:22;99786.68;;;3.18;100.00
57290;BME280;43523;53.022;-1.178;2023-04-22T05:23:24;99786.47;;;2.26;100.00
57290;BME280;43523;53.022;-1.178;2023-04-22T05:24:31;99787.23;;;3.12;100.00
57290;BME280;43523;53.022;-1.178;2023-04-22T05:25:33;99784.96;;;3.22;100.00
57290;BME280;43523;53.022;-1.178;2023-04-22T05:26:36;99785.94;;;3.21;100.00